OIBA 
Abumusa Island Airport
Iran 
ICAOIATAStatus
OIBAAEUOperational
LatitudeLongitude
25° 52' 32" N55° 1' 58" E
25.87570055.033001
Local Time (DST+5)UTC (GMT+4)
04-24-2014 07:45 am04-24-2014 03:15
Sunrise-SunsetLocalUTC
Begin Civil Twilight05:53 am01:23
Sunrise06:17 am01:47
Sunset07:18 pm14:48
End Civil Twilight07:42 pm15:12

Current Weather

METARObservedFlight Conditions

OIBA 240300Z 12004KT 5000 BR NSC 25/23 Q1009

Thu, Apr 24, 2014 @ 03:00 UTC(Z)

(15 Minutes ago)

MVFR

(Marginal Visual Flight Rules)

WindVisibilityCloudsConditions
120° at 4 knots (7 kph)
5000 meters
  • Clear skies
  • Mist
TemperaturesReadingsPrecipitation
Current Temp25°C (77°F)
Dewpoint23°C (73°F)
Humidity89%
Altimeter29.79"Hg
Sea Level Pressure1009mb
Field Elevation22.97'
None Recorded

Additional weather within a 92.6km radius of OIBA

Location METAR
OIBS

49.4km W (274°)

15 minutes ago
OIBL

75.7km N (344°)

15 minutes ago
OMDB

76.9km S (154°)

15 minutes ago
OMSJ

77.8km S (141°)

15 minutes ago
VFR VFR    MVFR MVFR    IFR IFR    LIFR LIFR    Unknown Unknown

Previous 24 hour Weather Graphs

  Loading...

CheckWX.com is intended as a tool to help pilots better visualize weather data.   It is not intended as a substitute for an official weather briefing obtained from a Flight Service Station.
CheckWX.com does not meet the FAA requirements for an official pre-flight weather briefing.   Therefore, it's important that pilots still call and obtain an official FSS pre-flight weather briefing.